CYSC

Sherbrooke Airport

Sherbrooke, , Canada
METAR CYSC 170005Z AUTO VRB02KT 9SM -SN SCT017 BKN022 M16/M18 A3003 RMK SLP192
Observed Flight Rules
Dec-17 @ 00:05 UTC (26 minutes ago) Marginal Visual Flight Rules
Wind Visibility Clouds Conditions
Variable at 2 knots 9 miles
  • Scattered at 1,700' AGL
  • Broken at 2,200' AGL
  • Light Snow
Temperatures Readings
Current -16°C / 3°F
Dewpoint -18°C / -0°F
Humidity 85%
Altimeter 30.03" Hg
Pressure 1019.2 hPa
Elevation 241
METAR CYSC 170005Z AUTO VRB02KT 9SM -SN SCT017 BKN022 M16/M18 A3003 RMK SLP192
Observed Flight Rules
Dec-17 @ 00:05 UTC
(26 minutes ago)
MVFR
Wind Visibility
Variable at 2 knots 9 miles
Clouds
  • Scattered at 1,700' AGL
  • Broken at 2,200' AGL
Conditions
  • Light Snow
Temperature Dewpoint
-16°C / 3°F -18°C / -0°F
Humidity Altimeter Pressure
85% 30.03" Hg 1019.2 hPa